Mexico V — XCKR — position and weather

sailwx.info

Track history (hours):
 
Tides and Currents Weather Stations Pressure Air Temp Water Temp Dewpoint Dewpoint Depression Visibility Wind Speed Wind Dir Waves Ship Positions

Mexico V

Last reported at 2016-Dec-08 01:34 UTC. Time now 2016-Dec-08 04:09 UTC.
Position N 20°33' W 086°59'.

Length 40 m; draft 1.5 m.

Type: Ship. MMSI: 345110005.

Date/timePositionNaut miles runAvg speedWind from/ knotsBaromVisibWave heightAir tempDewpointWater temp
2016-Dec-08 01:34N 20°33' W 086°59'1 0.7
2016-Dec-08 00:14N 20°33' W 086°59'2 2.4
2016-Dec-07 23:33N 20°31' W 086°58'1 1.1
2016-Dec-07 22:15N 20°32' W 086°59'2 3.3
2016-Dec-07 21:33N 20°31' W 086°57'3 0.5
2016-Dec-07 16:34N 20°29' W 086°59'3 3.4
2016-Dec-07 15:34N 20°32' W 086°58'1 1.2
2016-Dec-07 14:18N 20°33' W 086°59'2 2.5
2016-Dec-07 13:33N 20°32' W 086°58'2 1.5
2016-Dec-07 12:07N 20°30' W 086°59'1 2.2
2016-Dec-07 11:33N 20°29' W 086°58'2 0.2
2016-Dec-07 02:04N 20°31' W 086°57'2 4.7
2016-Dec-07 01:33N 20°32' W 086°59'1 0.7
2016-Dec-07 00:20N 20°33' W 086°59'0 0.5
2016-Dec-06 23:33N 20°33' W 086°59'0 0.1
2016-Dec-06 22:15N 20°33' W 086°59'3 4.0
2016-Dec-06 21:33N 20°31' W 086°57'2 2.4
2016-Dec-06 20:33N 20°29' W 086°58'0 0.0
2016-Dec-06 17:33N 20°29' W 086°59'0 0.2
2016-Dec-06 16:33N 20°29' W 086°59'5 4.5
2016-Dec-06 15:33N 20°33' W 086°60'1 0.9
2016-Dec-06 14:22N 20°33' W 086°59'4 2.2
2016-Dec-06 12:33N 20°29' W 086°59'2 2.4
2016-Dec-06 11:33N 20°31' W 086°57'0 0.0
2016-Dec-06 02:20N 20°31' W 086°57'0 0.3
2016-Dec-06 01:33N 20°31' W 086°57'3 2.8
2016-Dec-06 00:33N 20°33' W 086°59'0 0.3
2016-Dec-05 23:19N 20°33' W 086°59'4 4.9
2016-Dec-05 22:34N 20°30' W 086°59'3 2.1
2016-Dec-05 21:13N 20°32' W 086°59'3 4.4
2016-Dec-05 20:33N 20°29' W 086°58'2 0.9
2016-Dec-05 18:34N 20°31' W 086°57'3 3.4
2016-Dec-05 17:33N 20°33' W 086°60'1 0.8
2016-Dec-05 16:18N 20°32' W 086°59'1 2.0
2016-Dec-05 15:34N 20°34' W 086°60'1 1.2
2016-Dec-05 14:32N 20°33' W 086°59'0 0.1
2016-Dec-05 13:09N 20°33' W 086°59'3 0.3
2016-Dec-05 02:05N 20°31' W 086°57'3 5.1
2016-Dec-05 01:33N 20°33' W 086°59'0 0.2
2016-Dec-05 00:20N 20°33' W 086°59'3 3.6
2016-Dec-04 23:33N 20°31' W 086°57'0 0.0
2016-Dec-04 22:33N 20°31' W 086°57'0 0.0
2016-Dec-04 21:33N 20°31' W 086°57'0 0.0
2016-Dec-04 20:33N 20°31' W 086°57'0 0.0
2016-Dec-04 19:33N 20°31' W 086°57'0 0.0
2016-Dec-04 18:33N 20°31' W 086°57'0 0.0
2016-Dec-04 17:33N 20°31' W 086°57'0 0.2
2016-Dec-04 15:33N 20°31' W 086°57'0 0.5
2016-Dec-04 14:34N 20°31' W 086°57'0 0.0
2016-Dec-04 13:33N 20°31' W 086°57'0 0.0
2016-Dec-04 02:25N 20°31' W 086°57'2 2.8
2016-Dec-04 01:34N 20°33' W 086°59'1 0.5
2016-Dec-04 00:21N 20°33' W 086°59'0 0.4
2016-Dec-03 23:33N 20°33' W 086°59'1 1.1
2016-Dec-03 22:14N 20°32' W 086°59'2 2.9
2016-Dec-03 21:33N 20°31' W 086°57'0 0.0
2016-Dec-03 20:33N 20°31' W 086°57'0 0.0
2016-Dec-03 19:34N 20°31' W 086°57'0 0.0
2016-Dec-03 18:34N 20°31' W 086°57'0 0.0
2016-Dec-03 17:34N 20°31' W 086°57'3 3.3
2016-Dec-03 16:33N 20°33' W 086°59'1 0.9
2016-Dec-03 15:19N 20°32' W 086°59'1 0.4
2016-Dec-03 13:20N 20°33' W 086°59'3 3.9
2016-Dec-03 12:33N 20°31' W 086°57'0 0.0
2016-Dec-03 11:34N 20°31' W 086°57'3 0.3
2016-Dec-03 00:17N 20°33' W 086°59'1 1.3
2016-Dec-02 23:33N 20°33' W 087°00'1 0.9
2016-Dec-02 22:18N 20°33' W 086°59'3 3.5
2016-Dec-02 21:33N 20°31' W 086°57'0 0.0
2016-Dec-02 17:33N 20°31' W 086°57'3 1.1
2016-Dec-02 15:17N 20°33' W 086°59'0 0.4
2016-Dec-02 14:34N 20°32' W 086°59'0 0.1
2016-Dec-02 13:16N 20°32' W 086°59'2 2.9
2016-Dec-02 12:33N 20°31' W 086°57'0 0.0
2016-Dec-02 02:15N 20°31' W 086°57'3 4.0
2016-Dec-02 01:34N 20°33' W 086°59'0 0.3
2016-Dec-02 00:18N 20°33' W 086°59'0 0.4
2016-Dec-01 23:33N 20°33' W 086°59'0 0.1
2016-Dec-01 22:17N 20°33' W 086°59'3 4.0
2016-Dec-01 21:33N 20°31' W 086°57'0 0.3
2016-Dec-01 20:33N 20°31' W 086°57'0 0.0
2016-Dec-01 19:33N 20°31' W 086°57'3 2.9
2016-Dec-01 18:34N 20°33' W 086°59'3 1.6
2016-Dec-01 16:34N 20°31' W 086°57'3 2.9
2016-Dec-01 15:33N 20°33' W 086°59'0 0.3
2016-Dec-01 14:14N 20°33' W 086°59'3 3.8
2016-Dec-01 13:33N 20°31' W 086°57'0 0.3
2016-Dec-01 12:33N 20°31' W 086°57'0 0.3
2016-Dec-01 11:33N 20°31' W 086°57'0 0.0
2016-Dec-01 02:24N 20°31' W 086°57'2 2.1
2016-Dec-01 01:33N 20°32' W 086°58'1 0.9
2016-Dec-01 00:17N 20°33' W 086°59'1 0.8
2016-Nov-30 23:33N 20°33' W 086°59'1 0.5
2016-Nov-30 22:18N 20°33' W 086°59'3 3.9
2016-Nov-30 21:33N 20°31' W 086°57'0 0.0
2016-Nov-30 20:33N 20°31' W 086°57'0 0.2
2016-Nov-30 19:33N 20°31' W 086°57'0 0.0
2016-Nov-30 18:33N 20°31' W 086°57'0 0.0
2016-Nov-30 17:23N 20°31' W 086°57'1 0.8
2016-Nov-30 16:33N 20°31' W 086°57'3 2.7
2016-Nov-30 15:33N 20°33' W 086°59'0 0.2
2016-Nov-30 14:16N 20°33' W 086°59'3 4.2
2016-Nov-30 13:33N 20°31' W 086°57'0 0.3
2016-Nov-30 12:33N 20°31' W 086°57'0 0.0
2016-Nov-30 02:24N 20°31' W 086°57'0 0.4
2016-Nov-30 01:33N 20°31' W 086°57'0 0.4
2016-Nov-30 00:33N 20°31' W 086°57'2 1.8
2016-Nov-29 23:33N 20°29' W 086°58'3 0.8
2016-Nov-29 19:16N 20°33' W 086°59'3 3.7
2016-Nov-29 18:33N 20°31' W 086°57'0 0.1
2016-Nov-29 17:33N 20°31' W 086°57'1 1.2
2016-Nov-29 16:33N 20°32' W 086°57'3 1.2
2016-Nov-29 13:33N 20°29' W 086°59'2 0.2
2016-Nov-29 02:33N 20°31' W 086°57'0 0.0
2016-Nov-29 01:33N 20°31' W 086°57'0 0.0
2016-Nov-28 23:33N 20°31' W 086°57'0 0.2
2016-Nov-28 21:33N 20°31' W 086°57'3 1.8
2016-Nov-28 20:05N 20°33' W 086°59'4 7.7
2016-Nov-28 19:33N 20°29' W 086°59'2 0.5
2016-Nov-28 15:33N 20°31' W 086°57'0 0.0
2016-Nov-28 14:33N 20°31' W 086°57'1 1.2
2016-Nov-28 13:33N 20°32' W 086°57'3 1.7
2016-Nov-28 11:33N 20°29' W 086°59'3 2.6
2016-Nov-28 10:33N 20°31' W 086°57'2 0.2
2016-Nov-28 02:33N 20°32' W 086°59'  
Track history (hours):
 
Tides and Currents Weather Stations Pressure Air Temp Water Temp Dewpoint Dewpoint Depression Visibility Wind Speed Wind Dir Waves Ship Positions

Mexico V

Last reported at 2016-Dec-08 01:34 UTC. Time now 2016-Dec-08 04:09 UTC.
Position N 20°33' W 086°59'.

Length 40 m; draft 1.5 m.

Type: Ship. MMSI: 345110005.

Date/timePositionNaut miles runAvg speedWind from/ knotsBaromVisibWave heightAir tempDewpointWater temp
2016-Dec-08 01:34N 20°33' W 086°59'1 0.7
2016-Dec-08 00:14N 20°33' W 086°59'2 2.4
2016-Dec-07 23:33N 20°31' W 086°58'1 1.1
2016-Dec-07 22:15N 20°32' W 086°59'2 3.3
2016-Dec-07 21:33N 20°31' W 086°57'3 0.5
2016-Dec-07 16:34N 20°29' W 086°59'3 3.4
2016-Dec-07 15:34N 20°32' W 086°58'1 1.2
2016-Dec-07 14:18N 20°33' W 086°59'2 2.5
2016-Dec-07 13:33N 20°32' W 086°58'2 1.5
2016-Dec-07 12:07N 20°30' W 086°59'1 2.2
2016-Dec-07 11:33N 20°29' W 086°58'2 0.2
2016-Dec-07 02:04N 20°31' W 086°57'2 4.7
2016-Dec-07 01:33N 20°32' W 086°59'1 0.7
2016-Dec-07 00:20N 20°33' W 086°59'0 0.5
2016-Dec-06 23:33N 20°33' W 086°59'0 0.1
2016-Dec-06 22:15N 20°33' W 086°59'3 4.0
2016-Dec-06 21:33N 20°31' W 086°57'2 2.4
2016-Dec-06 20:33N 20°29' W 086°58'0 0.0
2016-Dec-06 17:33N 20°29' W 086°59'0 0.2
2016-Dec-06 16:33N 20°29' W 086°59'5 4.5
2016-Dec-06 15:33N 20°33' W 086°60'1 0.9
2016-Dec-06 14:22N 20°33' W 086°59'4 2.2
2016-Dec-06 12:33N 20°29' W 086°59'2 2.4
2016-Dec-06 11:33N 20°31' W 086°57'0 0.0
2016-Dec-06 02:20N 20°31' W 086°57'0 0.3
2016-Dec-06 01:33N 20°31' W 086°57'3 2.8
2016-Dec-06 00:33N 20°33' W 086°59'0 0.3
2016-Dec-05 23:19N 20°33' W 086°59'4 4.9
2016-Dec-05 22:34N 20°30' W 086°59'3 2.1
2016-Dec-05 21:13N 20°32' W 086°59'3 4.4
2016-Dec-05 20:33N 20°29' W 086°58'2 0.9
2016-Dec-05 18:34N 20°31' W 086°57'3 3.4
2016-Dec-05 17:33N 20°33' W 086°60'1 0.8
2016-Dec-05 16:18N 20°32' W 086°59'1 2.0
2016-Dec-05 15:34N 20°34' W 086°60'1 1.2
2016-Dec-05 14:32N 20°33' W 086°59'0 0.1
2016-Dec-05 13:09N 20°33' W 086°59'3 0.3
2016-Dec-05 02:05N 20°31' W 086°57'3 5.1
2016-Dec-05 01:33N 20°33' W 086°59'0 0.2
2016-Dec-05 00:20N 20°33' W 086°59'3 3.6
2016-Dec-04 23:33N 20°31' W 086°57'0 0.0
2016-Dec-04 22:33N 20°31' W 086°57'0 0.0
2016-Dec-04 21:33N 20°31' W 086°57'0 0.0
2016-Dec-04 20:33N 20°31' W 086°57'0 0.0
2016-Dec-04 19:33N 20°31' W 086°57'0 0.0
2016-Dec-04 18:33N 20°31' W 086°57'0 0.0
2016-Dec-04 17:33N 20°31' W 086°57'0 0.2
2016-Dec-04 15:33N 20°31' W 086°57'0 0.5
2016-Dec-04 14:34N 20°31' W 086°57'0 0.0
2016-Dec-04 13:33N 20°31' W 086°57'0 0.0
2016-Dec-04 02:25N 20°31' W 086°57'2 2.8
2016-Dec-04 01:34N 20°33' W 086°59'1 0.5
2016-Dec-04 00:21N 20°33' W 086°59'0 0.4
2016-Dec-03 23:33N 20°33' W 086°59'1 1.1
2016-Dec-03 22:14N 20°32' W 086°59'2 2.9
2016-Dec-03 21:33N 20°31' W 086°57'0 0.0
2016-Dec-03 20:33N 20°31' W 086°57'0 0.0
2016-Dec-03 19:34N 20°31' W 086°57'0 0.0
2016-Dec-03 18:34N 20°31' W 086°57'0 0.0
2016-Dec-03 17:34N 20°31' W 086°57'3 3.3
2016-Dec-03 16:33N 20°33' W 086°59'1 0.9
2016-Dec-03 15:19N 20°32' W 086°59'1 0.4
2016-Dec-03 13:20N 20°33' W 086°59'3 3.9
2016-Dec-03 12:33N 20°31' W 086°57'0 0.0
2016-Dec-03 11:34N 20°31' W 086°57'3 0.3
2016-Dec-03 00:17N 20°33' W 086°59'1 1.3
2016-Dec-02 23:33N 20°33' W 087°00'1 0.9
2016-Dec-02 22:18N 20°33' W 086°59'3 3.5
2016-Dec-02 21:33N 20°31' W 086°57'0 0.0
2016-Dec-02 17:33N 20°31' W 086°57'3 1.1
2016-Dec-02 15:17N 20°33' W 086°59'0 0.4
2016-Dec-02 14:34N 20°32' W 086°59'0 0.1
2016-Dec-02 13:16N 20°32' W 086°59'2 2.9
2016-Dec-02 12:33N 20°31' W 086°57'0 0.0
2016-Dec-02 02:15N 20°31' W 086°57'3 4.0
2016-Dec-02 01:34N 20°33' W 086°59'0 0.3
2016-Dec-02 00:18N 20°33' W 086°59'0 0.4
2016-Dec-01 23:33N 20°33' W 086°59'0 0.1
2016-Dec-01 22:17N 20°33' W 086°59'3 4.0
2016-Dec-01 21:33N 20°31' W 086°57'0 0.3
2016-Dec-01 20:33N 20°31' W 086°57'0 0.0
2016-Dec-01 19:33N 20°31' W 086°57'3 2.9
2016-Dec-01 18:34N 20°33' W 086°59'3 1.6
2016-Dec-01 16:34N 20°31' W 086°57'3 2.9
2016-Dec-01 15:33N 20°33' W 086°59'0 0.3
2016-Dec-01 14:14N 20°33' W 086°59'3 3.8
2016-Dec-01 13:33N 20°31' W 086°57'0 0.3
2016-Dec-01 12:33N 20°31' W 086°57'0 0.3
2016-Dec-01 11:33N 20°31' W 086°57'0 0.0
2016-Dec-01 02:24N 20°31' W 086°57'2 2.1
2016-Dec-01 01:33N 20°32' W 086°58'1 0.9
2016-Dec-01 00:17N 20°33' W 086°59'1 0.8
2016-Nov-30 23:33N 20°33' W 086°59'1 0.5
2016-Nov-30 22:18N 20°33' W 086°59'3 3.9
2016-Nov-30 21:33N 20°31' W 086°57'0 0.0
2016-Nov-30 20:33N 20°31' W 086°57'0 0.2
2016-Nov-30 19:33N 20°31' W 086°57'0 0.0
2016-Nov-30 18:33N 20°31' W 086°57'0 0.0
2016-Nov-30 17:23N 20°31' W 086°57'1 0.8
2016-Nov-30 16:33N 20°31' W 086°57'3 2.7
2016-Nov-30 15:33N 20°33' W 086°59'0 0.2
2016-Nov-30 14:16N 20°33' W 086°59'3 4.2
2016-Nov-30 13:33N 20°31' W 086°57'0 0.3
2016-Nov-30 12:33N 20°31' W 086°57'0 0.0
2016-Nov-30 02:24N 20°31' W 086°57'0 0.4
2016-Nov-30 01:33N 20°31' W 086°57'0 0.4
2016-Nov-30 00:33N 20°31' W 086°57'2 1.8
2016-Nov-29 23:33N 20°29' W 086°58'3 0.8
2016-Nov-29 19:16N 20°33' W 086°59'3 3.7
2016-Nov-29 18:33N 20°31' W 086°57'0 0.1
2016-Nov-29 17:33N 20°31' W 086°57'1 1.2
2016-Nov-29 16:33N 20°32' W 086°57'3 1.2
2016-Nov-29 13:33N 20°29' W 086°59'2 0.2
2016-Nov-29 02:33N 20°31' W 086°57'0 0.0
2016-Nov-29 01:33N 20°31' W 086°57'0 0.0
2016-Nov-28 23:33N 20°31' W 086°57'0 0.2
2016-Nov-28 21:33N 20°31' W 086°57'3 1.8
2016-Nov-28 20:05N 20°33' W 086°59'4 7.7
2016-Nov-28 19:33N 20°29' W 086°59'2 0.5
2016-Nov-28 15:33N 20°31' W 086°57'0 0.0
2016-Nov-28 14:33N 20°31' W 086°57'1 1.2
2016-Nov-28 13:33N 20°32' W 086°57'3 1.7
2016-Nov-28 11:33N 20°29' W 086°59'3 2.6
2016-Nov-28 10:33N 20°31' W 086°57'2 0.2
2016-Nov-28 02:33N 20°32' W 086°59'  

Dump ship's entire track history